Time;durP1;ratioP1;P1;durP2;ratioP2;P2;SDS_P1;SDS_P2;PMS_P1;PMS_P2;Temp;Humidity;BMP_temperature;BMP_pressure;BME280_temperature;BME280_humidity;BME280_pressure;Samples;Min_cycle;Max_cycle;Signal;HPM_P1;HPM_P2
2020/12/31 00:02:12;;;;;;;3.00;2.15;;;4.70;99.90;;;;;;5075280;28;20305;-74
2020/12/31 00:04:38;;;;;;;2.72;1.70;;;4.80;99.90;;;;;;5076193;28;20209;-75
2020/12/31 00:07:05;;;;;;;3.33;2.40;;;4.80;99.90;;;;;;5075233;28;20314;-76
2020/12/31 00:09:31;;;;;;;2.90;2.35;;;4.90;99.90;;;;;;5074645;28;20202;-76
2020/12/31 00:11:58;;;;;;;3.88;2.92;;;5.00;99.90;;;;;;5075409;28;20250;-76
2020/12/31 00:14:25;;;;;;;3.72;2.78;;;5.00;99.90;;;;;;5074647;28;20290;-75
2020/12/31 00:16:51;;;;;;;5.15;2.70;;;5.00;99.90;;;;;;5074566;28;20229;-74
2020/12/31 00:19:17;;;;;;;4.43;2.30;;;5.00;99.90;;;;;;5064944;28;20286;-75
2020/12/31 00:21:44;;;;;;;2.50;2.20;;;5.00;99.90;;;;;;5065034;28;20517;-75
2020/12/31 00:24:10;;;;;;;4.65;2.67;;;5.10;99.90;;;;;;5062885;28;20291;-75
2020/12/31 00:26:36;;;;;;;3.20;2.42;;;4.90;99.90;;;;;;5066284;28;20223;-75
2020/12/31 00:29:03;;;;;;;3.95;3.00;;;4.70;99.90;;;;;;5064308;28;20217;-75
2020/12/31 00:31:30;;;;;;;2.70;2.10;;;4.70;99.90;;;;;;5068411;28;20226;-75
2020/12/31 00:33:56;;;;;;;3.95;2.28;;;4.70;99.90;;;;;;5066188;28;20199;-75
2020/12/31 00:36:23;;;;;;;4.25;2.70;;;4.60;99.90;;;;;;5064478;28;20203;-75
2020/12/31 00:38:51;;;;;;;3.80;2.55;;;4.60;99.90;;;;;;5066481;28;20292;-73
2020/12/31 00:41:19;;;;;;;3.08;2.30;;;4.60;99.90;;;;;;5062868;28;20666;-75
2020/12/31 00:43:45;;;;;;;4.22;2.20;;;4.50;99.90;;;;;;5063883;28;20195;-75
2020/12/31 00:46:12;;;;;;;4.35;2.35;;;4.50;99.90;;;;;;5065237;28;20198;-74
2020/12/31 00:48:39;;;;;;;3.88;2.53;;;4.60;99.90;;;;;;5071360;28;20246;-73
2020/12/31 00:51:05;;;;;;;3.15;2.10;;;4.70;99.90;;;;;;5077515;28;20530;-73
2020/12/31 00:53:32;;;;;;;3.13;1.70;;;4.70;99.90;;;;;;5076256;28;20612;-71
2020/12/31 00:55:58;;;;;;;1.77;1.67;;;4.70;99.90;;;;;;5075689;28;20220;-71
2020/12/31 00:58:24;;;;;;;2.28;1.70;;;4.80;99.90;;;;;;5075507;28;20360;-72
2020/12/31 01:00:51;;;;;;;3.78;2.03;;;4.90;99.90;;;;;;5075852;28;20294;-73
2020/12/31 01:03:17;;;;;;;3.22;1.85;;;4.90;99.90;;;;;;5076242;28;20195;-72
2020/12/31 01:05:44;;;;;;;2.50;1.50;;;4.90;99.90;;;;;;5077203;28;20209;-72
2020/12/31 01:08:11;;;;;;;1.42;1.33;;;5.00;99.90;;;;;;5076245;28;20313;-72
2020/12/31 01:10:37;;;;;;;3.85;1.80;;;5.00;99.90;;;;;;5075559;28;20243;-72
2020/12/31 01:13:03;;;;;;;2.58;1.70;;;5.00;99.90;;;;;;5075404;28;20314;-72
2020/12/31 01:15:30;;;;;;;1.80;1.35;;;5.00;99.90;;;;;;5075083;28;20244;-72
2020/12/31 01:17:56;;;;;;;2.60;1.65;;;5.10;99.90;;;;;;5075644;28;20307;-72
2020/12/31 01:20:23;;;;;;;2.25;1.70;;;5.00;99.90;;;;;;5075521;28;20656;-73
2020/12/31 01:22:51;;;;;;;2.00;1.80;;;5.00;99.90;;;;;;5075922;28;20203;-73
2020/12/31 01:25:18;;;;;;;2.53;1.70;;;5.00;99.90;;;;;;5075279;28;20211;-72
2020/12/31 01:27:44;;;;;;;2.28;2.00;;;5.00;99.90;;;;;;5075871;28;20227;-73
2020/12/31 01:30:10;;;;;;;2.85;1.80;;;4.80;99.90;;;;;;5076266;28;20206;-72
2020/12/31 01:32:37;;;;;;;3.45;1.80;;;4.70;99.90;;;;;;5075605;28;20778;-72
2020/12/31 01:35:03;;;;;;;3.88;2.35;;;4.60;99.90;;;;;;5076509;28;20294;-72
2020/12/31 01:37:30;;;;;;;1.88;1.77;;;4.40;99.90;;;;;;5076773;28;20229;-72
2020/12/31 01:39:57;;;;;;;4.72;2.28;;;4.40;99.90;;;;;;5076911;28;20297;-72
2020/12/31 01:42:23;;;;;;;4.43;2.22;;;4.40;99.90;;;;;;5076043;28;20293;-72
2020/12/31 01:44:49;;;;;;;3.30;2.00;;;4.40;99.90;;;;;;5074675;28;20289;-71
2020/12/31 01:47:16;;;;;;;3.03;2.08;;;4.20;99.90;;;;;;5074773;28;20319;-72
2020/12/31 01:49:44;;;;;;;4.00;2.00;;;4.10;99.90;;;;;;5075650;28;20206;-72
2020/12/31 01:52:14;;;;;;;3.05;2.65;;;4.20;99.90;;;;;;5075763;28;20223;-72
2020/12/31 01:54:41;;;;;;;2.15;1.95;;;4.10;99.90;;;;;;5076580;28;20298;-72
2020/12/31 01:57:09;;;;;;;2.75;2.03;;;4.00;99.90;;;;;;5075807;28;20226;-72
2020/12/31 01:59:35;;;;;;;2.13;1.70;;;3.80;99.90;;;;;;5076402;28;20545;-72
2020/12/31 02:02:02;;;;;;;3.53;2.00;;;3.80;99.90;;;;;;5075555;28;20205;-72
2020/12/31 02:04:28;;;;;;;2.67;1.77;;;3.70;99.90;;;;;;5074626;28;20726;-72
2020/12/31 02:06:55;;;;;;;2.75;1.95;;;3.70;99.90;;;;;;5075106;28;20291;-72
2020/12/31 02:09:21;;;;;;;2.67;2.22;;;3.60;99.90;;;;;;5076518;28;20212;-72
2020/12/31 02:11:47;;;;;;;3.15;2.22;;;3.50;99.90;;;;;;5075087;28;20226;-72
2020/12/31 02:14:14;;;;;;;2.75;2.20;;;3.60;99.90;;;;;;5075259;28;20401;-72
2020/12/31 02:16:41;;;;;;;6.40;3.15;;;3.60;99.90;;;;;;5076407;28;20293;-72
2020/12/31 02:19:11;;;;;;;2.60;2.13;;;3.70;99.90;;;;;;5076194;28;20202;-73
2020/12/31 02:21:42;;;;;;;4.18;2.88;;;3.80;99.90;;;;;;5075741;28;20645;-72
2020/12/31 02:24:09;;;;;;;3.13;2.03;;;3.80;99.90;;;;;;5075665;28;20206;-73
2020/12/31 02:26:37;;;;;;;3.20;2.50;;;3.90;99.90;;;;;;5075297;28;20290;-72
2020/12/31 02:29:05;;;;;;;3.08;2.03;;;4.00;99.90;;;;;;5075250;28;20210;-72
2020/12/31 02:31:32;;;;;;;3.08;2.45;;;4.10;99.90;;;;;;5075904;28;20665;-72
2020/12/31 02:33:59;;;;;;;3.30;2.60;;;4.10;99.90;;;;;;5076225;28;20207;-72
2020/12/31 02:36:28;;;;;;;3.20;2.53;;;4.20;99.90;;;;;;5076266;28;20293;-72
2020/12/31 02:38:56;;;;;;;4.32;2.47;;;4.20;99.90;;;;;;5079369;28;20209;-72
2020/12/31 02:41:22;;;;;;;2.95;1.92;;;4.20;99.90;;;;;;5079733;28;20199;-73
2020/12/31 02:43:49;;;;;;;2.97;2.10;;;4.30;99.90;;;;;;5079699;28;20241;-72
2020/12/31 02:46:19;;;;;;;3.92;2.03;;;4.30;99.90;;;;;;5079309;28;20216;-72
2020/12/31 02:48:46;;;;;;;3.38;2.08;;;4.30;99.90;;;;;;5078612;28;20260;-72
2020/12/31 02:51:13;;;;;;;3.70;2.05;;;4.30;99.90;;;;;;5078428;28;20213;-72
2020/12/31 02:53:40;;;;;;;3.00;2.20;;;4.40;99.90;;;;;;5079159;28;20236;-73
2020/12/31 02:56:10;;;;;;;3.80;1.95;;;4.40;99.90;;;;;;5079814;28;20290;-73
2020/12/31 02:58:37;;;;;;;2.53;2.20;;;4.40;99.90;;;;;;5078423;28;20227;-72
2020/12/31 03:01:04;;;;;;;3.10;1.80;;;4.40;99.90;;;;;;5077806;28;20232;-72
2020/12/31 03:03:30;;;;;;;3.67;2.30;;;4.50;99.90;;;;;;5077714;28;20294;-72
2020/12/31 03:05:56;;;;;;;3.45;2.35;;;4.50;99.90;;;;;;5077291;28;20674;-72
2020/12/31 03:08:23;;;;;;;4.47;2.33;;;4.50;99.90;;;;;;5077215;28;20314;-72
2020/12/31 03:10:50;;;;;;;4.32;2.40;;;4.60;99.90;;;;;;5077666;28;20267;-72
2020/12/31 03:13:18;;;;;;;3.92;2.33;;;4.60;99.90;;;;;;5077637;28;20721;-72
2020/12/31 03:15:44;;;;;;;3.72;2.17;;;4.60;99.90;;;;;;5077303;28;20203;-72
2020/12/31 03:18:10;;;;;;;2.80;1.70;;;4.60;99.90;;;;;;5077276;28;20223;-72
2020/12/31 03:20:43;;;;;;;3.20;2.05;;;4.60;99.90;;;;;;5077783;28;20229;-72
2020/12/31 03:23:10;;;;;;;4.28;2.17;;;4.40;99.90;;;;;;5077228;28;20751;-72
2020/12/31 03:25:36;;;;;;;4.10;2.00;;;4.40;99.90;;;;;;5077601;28;20207;-73
2020/12/31 03:28:03;;;;;;;3.95;2.00;;;4.40;99.90;;;;;;5076915;28;20237;-72
2020/12/31 03:30:30;;;;;;;2.92;2.30;;;4.40;99.90;;;;;;5077371;28;20215;-72
2020/12/31 03:32:57;;;;;;;2.08;1.80;;;4.40;99.90;;;;;;5076992;28;20251;-72
2020/12/31 03:35:23;;;;;;;2.55;1.80;;;4.40;99.90;;;;;;5077391;28;20293;-72
2020/12/31 03:37:49;;;;;;;4.72;2.30;;;4.40;99.90;;;;;;5077579;28;20309;-73
2020/12/31 03:40:16;;;;;;;6.03;1.98;;;4.40;99.90;;;;;;5078131;28;20297;-72
2020/12/31 03:42:42;;;;;;;4.07;1.90;;;4.40;99.90;;;;;;5077809;28;20198;-72
2020/12/31 03:45:09;;;;;;;4.25;2.00;;;4.30;99.90;;;;;;5078009;28;20257;-73
2020/12/31 03:47:36;;;;;;;5.38;2.55;;;4.20;99.90;;;;;;5076106;28;20318;-72
2020/12/31 03:50:03;;;;;;;3.60;2.17;;;4.00;99.90;;;;;;5076346;28;20586;-72
2020/12/31 03:52:29;;;;;;;3.05;1.83;;;3.90;99.90;;;;;;5077965;28;20222;-72
2020/12/31 03:54:55;;;;;;;4.55;1.90;;;3.80;99.90;;;;;;5077837;28;20290;-72
2020/12/31 03:57:21;;;;;;;3.63;2.22;;;3.70;99.90;;;;;;5077669;28;20225;-72
2020/12/31 03:59:48;;;;;;;3.53;1.70;;;3.80;99.90;;;;;;5077296;28;20607;-72
2020/12/31 04:02:14;;;;;;;2.28;2.00;;;3.80;99.90;;;;;;5076480;28;20356;-72
2020/12/31 04:04:41;;;;;;;3.55;1.60;;;3.80;99.90;;;;;;5076638;28;20293;-72
2020/12/31 04:07:08;;;;;;;5.93;2.70;;;3.70;99.90;;;;;;5076627;28;20229;-72
2020/12/31 04:09:35;;;;;;;3.53;2.30;;;3.80;99.90;;;;;;5076862;28;20340;-72
2020/12/31 04:12:01;;;;;;;3.88;2.05;;;3.70;99.90;;;;;;5076835;28;20219;-72
2020/12/31 04:14:28;;;;;;;4.85;2.25;;;3.80;99.90;;;;;;5078471;28;20205;-73
2020/12/31 04:16:54;;;;;;;1.65;1.55;;;3.70;99.90;;;;;;5077900;28;20584;-72
2020/12/31 04:19:20;;;;;;;3.22;2.15;;;3.70;99.90;;;;;;5076018;28;20597;-72
2020/12/31 04:21:48;;;;;;;2.30;1.92;;;3.80;99.90;;;;;;5075904;28;20290;-72
2020/12/31 04:24:14;;;;;;;4.10;1.90;;;3.90;99.90;;;;;;5077011;28;20297;-72
2020/12/31 04:26:40;;;;;;;3.70;2.42;;;3.90;99.90;;;;;;5076068;28;20206;-71
2020/12/31 04:29:07;;;;;;;3.10;1.90;;;3.80;99.90;;;;;;5077372;28;20293;-72
2020/12/31 04:31:34;;;;;;;2.70;1.80;;;3.70;99.90;;;;;;5076711;28;20708;-72
2020/12/31 04:34:00;;;;;;;3.17;1.77;;;3.70;99.90;;;;;;5076191;28;20203;-72
2020/12/31 04:36:26;;;;;;;2.25;2.00;;;3.70;99.90;;;;;;5075371;28;20209;-72
2020/12/31 04:38:54;;;;;;;1.80;1.25;;;3.70;99.90;;;;;;5076148;28;20199;-72
2020/12/31 04:41:20;;;;;;;3.88;2.10;;;3.70;99.90;;;;;;5076925;28;20298;-72
2020/12/31 04:43:47;;;;;;;2.35;1.50;;;3.60;99.90;;;;;;5075783;28;20285;-72
2020/12/31 04:46:18;;;;;;;2.42;2.00;;;3.60;99.90;;;;;;5074986;28;20298;-72
2020/12/31 04:48:54;;;;;;;3.63;1.75;;;3.60;99.90;;;;;;5075176;28;20304;-72
2020/12/31 04:51:24;;;;;;;2.97;1.30;;;3.60;99.90;;;;;;5075292;28;20668;-72
2020/12/31 04:53:51;;;;;;;3.80;1.95;;;3.50;99.90;;;;;;5075235;28;20582;-72
2020/12/31 04:56:19;;;;;;;2.00;1.85;;;3.40;99.90;;;;;;5074768;28;20659;-72
2020/12/31 04:58:46;;;;;;;2.00;1.40;;;3.40;99.90;;;;;;5074850;28;20229;-72
2020/12/31 05:01:15;;;;;;;1.73;1.42;;;3.30;99.90;;;;;;5074943;28;20297;-72
2020/12/31 05:03:41;;;;;;;2.95;2.10;;;3.20;99.90;;;;;;5075074;28;20285;-72
2020/12/31 05:06:13;;;;;;;1.92;1.20;;;3.20;99.90;;;;;;5074755;28;20293;-72
2020/12/31 05:08:39;;;;;;;1.48;1.10;;;3.20;99.90;;;;;;5074543;28;20318;-72
2020/12/31 05:11:06;;;;;;;2.75;1.73;;;3.10;99.90;;;;;;5074792;28;20297;-72
2020/12/31 05:13:43;;;;;;;3.03;1.42;;;3.00;99.90;;;;;;5074456;28;20315;-72
2020/12/31 05:16:09;;;;;;;2.50;1.67;;;3.00;99.90;;;;;;5074483;28;20209;-72
2020/12/31 05:18:36;;;;;;;2.25;1.35;;;3.00;99.90;;;;;;5076244;28;20226;-72
2020/12/31 05:21:16;;;;;;;2.75;2.28;;;3.00;99.90;;;;;;5076255;28;20207;-72
2020/12/31 05:23:46;;;;;;;1.75;1.65;;;3.00;99.90;;;;;;5074570;28;20289;-72
2020/12/31 05:26:28;;;;;;;2.45;1.60;;;3.10;99.90;;;;;;5075498;28;20206;-72
2020/12/31 05:28:56;;;;;;;4.30;2.20;;;3.00;99.90;;;;;;5076405;28;20213;-72
2020/12/31 05:31:22;;;;;;;2.92;1.83;;;3.00;99.90;;;;;;5075831;28;20202;-73
2020/12/31 05:33:49;;;;;;;3.30;2.00;;;3.00;99.90;;;;;;5075607;28;20639;-72
2020/12/31 05:36:20;;;;;;;3.38;1.60;;;2.90;99.90;;;;;;5075483;28;20660;-72
2020/12/31 05:39:01;;;;;;;2.30;1.35;;;2.90;99.90;;;;;;5075848;28;20575;-73
2020/12/31 05:41:29;;;;;;;2.60;1.73;;;2.90;99.90;;;;;;5076336;28;20209;-73
2020/12/31 05:43:58;;;;;;;2.25;1.77;;;2.90;99.90;;;;;;5075647;28;20199;-72
2020/12/31 05:46:24;;;;;;;1.40;1.20;;;2.90;99.90;;;;;;5075269;28;20203;-72
2020/12/31 05:48:55;;;;;;;2.55;2.00;;;2.90;99.90;;;;;;5075253;28;20198;-73
2020/12/31 05:51:26;;;;;;;2.35;1.58;;;3.00;99.90;;;;;;5075396;28;20546;-73
2020/12/31 05:53:54;;;;;;;2.67;1.42;;;3.00;99.90;;;;;;5075056;28;20313;-72
2020/12/31 05:56:21;;;;;;;3.08;1.52;;;3.00;99.90;;;;;;5074923;28;20679;-72
2020/12/31 05:58:50;;;;;;;4.05;2.53;;;2.90;99.90;;;;;;5074183;28;20258;-72
2020/12/31 06:01:19;;;;;;;3.05;2.05;;;3.00;99.90;;;;;;5073977;28;20285;-72
2020/12/31 06:03:50;;;;;;;4.13;2.00;;;3.00;99.90;;;;;;5074047;28;20209;-72
2020/12/31 06:06:19;;;;;;;2.38;2.05;;;2.90;99.90;;;;;;5073624;28;20202;-72
2020/12/31 06:08:57;;;;;;;3.85;2.20;;;2.90;99.90;;;;;;5074690;28;20702;-72
2020/12/31 06:11:31;;;;;;;2.45;1.92;;;2.80;99.90;;;;;;5073709;28;20568;-72
2020/12/31 06:13:58;;;;;;;3.75;2.30;;;2.70;99.90;;;;;;5074148;28;20221;-72
2020/12/31 06:16:28;;;;;;;2.75;2.08;;;2.60;99.90;;;;;;5073810;28;20213;-72
2020/12/31 06:19:02;;;;;;;1.80;1.63;;;2.50;99.90;;;;;;5075381;28;20203;-72
2020/12/31 06:21:40;;;;;;;2.60;1.60;;;2.50;99.90;;;;;;5074375;28;20241;-72
2020/12/31 06:24:12;;;;;;;2.33;1.67;;;2.50;99.90;;;;;;5074813;28;20198;-72
2020/12/31 06:26:40;;;;;;;2.47;1.67;;;2.30;99.90;;;;;;5073552;28;20213;-72
2020/12/31 06:29:07;;;;;;;4.30;1.95;;;2.20;99.90;;;;;;5074558;28;20213;-72
2020/12/31 06:31:34;;;;;;;2.47;1.25;;;2.20;99.90;;;;;;5074577;28;20556;-72
2020/12/31 06:34:01;;;;;;;2.65;2.00;;;2.20;99.90;;;;;;5074405;28;20229;-72
2020/12/31 06:36:35;;;;;;;3.60;2.25;;;2.20;99.90;;;;;;5073674;28;20199;-71
2020/12/31 06:39:02;;;;;;;3.92;2.17;;;2.20;99.90;;;;;;5074038;28;20605;-72
2020/12/31 06:41:38;;;;;;;4.25;2.35;;;2.10;99.90;;;;;;5073708;28;20211;-72
2020/12/31 06:44:09;;;;;;;4.13;2.30;;;2.00;99.90;;;;;;5073814;28;20241;-72
2020/12/31 06:46:41;;;;;;;2.60;2.30;;;2.00;99.90;;;;;;5073093;28;20203;-72
2020/12/31 06:49:08;;;;;;;2.47;1.77;;;2.20;99.90;;;;;;5073324;28;20211;-72
2020/12/31 06:51:34;;;;;;;3.63;2.33;;;2.20;99.90;;;;;;5073790;28;20606;-72
2020/12/31 06:54:00;;;;;;;4.00;2.20;;;2.30;99.90;;;;;;5073504;28;20215;-72
2020/12/31 06:56:44;;;;;;;3.30;1.83;;;2.30;99.90;;;;;;5073522;28;20206;-72
2020/12/31 06:59:28;;;;;;;2.70;1.90;;;2.30;99.90;;;;;;5073504;28;20198;-72
2020/12/31 07:01:56;;;;;;;4.53;2.20;;;2.30;99.90;;;;;;5073373;28;20215;-72
2020/12/31 07:04:30;;;;;;;2.20;1.55;;;2.10;99.90;;;;;;5074270;28;20198;-72
2020/12/31 07:06:56;;;;;;;3.15;2.15;;;2.00;99.90;;;;;;5073976;28;20648;-72
2020/12/31 07:09:34;;;;;;;3.08;1.73;;;1.90;99.90;;;;;;5075273;28;20539;-72
2020/12/31 07:12:04;;;;;;;4.05;2.30;;;1.80;99.90;;;;;;5074628;28;20209;-72
2020/12/31 07:14:31;;;;;;;1.73;1.52;;;1.80;99.90;;;;;;5074531;28;20213;-72
2020/12/31 07:17:03;;;;;;;5.30;2.10;;;1.70;99.90;;;;;;5074361;28;20223;-72
2020/12/31 07:19:35;;;;;;;2.53;2.03;;;1.70;99.90;;;;;;5074607;28;20248;-72
2020/12/31 07:22:02;;;;;;;3.25;2.22;;;1.70;99.90;;;;;;5074061;28;20209;-72
2020/12/31 07:24:31;;;;;;;2.55;2.30;;;1.60;99.90;;;;;;5076529;28;20542;-72
2020/12/31 07:26:59;;;;;;;6.88;2.78;;;1.70;99.90;;;;;;5077260;28;20773;-72
2020/12/31 07:29:35;;;;;;;3.78;2.03;;;1.70;99.90;;;;;;5077880;28;20187;-72
2020/12/31 07:32:03;;;;;;;5.30;2.35;;;1.90;99.90;;;;;;5078368;28;20293;-72
2020/12/31 07:34:32;;;;;;;5.45;2.90;;;2.00;99.90;;;;;;5077904;28;20203;-72
2020/12/31 07:37:03;;;;;;;3.97;2.60;;;2.00;99.90;;;;;;5077404;28;20240;-72
2020/12/31 07:39:30;;;;;;;3.17;2.75;;;2.10;99.90;;;;;;5077918;28;20213;-72
2020/12/31 07:42:23;;;;;;;4.00;2.10;;;2.20;99.90;;;;;;5078238;28;20203;-72
2020/12/31 07:44:54;;;;;;;3.08;2.05;;;2.20;99.90;;;;;;5041556;28;20653;-72
2020/12/31 07:47:23;;;;;;;4.40;2.28;;;2.30;99.90;;;;;;5077388;28;20226;-71
2020/12/31 07:49:52;;;;;;;3.30;2.25;;;2.20;99.90;;;;;;5077475;28;20210;-73
2020/12/31 07:52:19;;;;;;;4.30;2.47;;;2.30;99.90;;;;;;5077539;28;20226;-72
2020/12/31 07:54:46;;;;;;;5.05;2.95;;;2.20;99.90;;;;;;5077699;28;20248;-72
2020/12/31 07:57:13;;;;;;;3.15;2.13;;;2.20;99.90;;;;;;5077230;28;20225;-72
2020/12/31 07:59:44;;;;;;;4.95;2.60;;;2.30;99.90;;;;;;5077443;28;20341;-72
2020/12/31 08:02:11;;;;;;;3.85;2.85;;;2.40;99.90;;;;;;5077250;28;20603;-72
2020/12/31 08:04:38;;;;;;;4.47;2.30;;;2.40;99.90;;;;;;5076116;28;20199;-72
2020/12/31 08:07:14;;;;;;;5.22;2.47;;;2.50;99.90;;;;;;5076198;28;20219;-72
2020/12/31 08:09:40;;;;;;;3.15;1.90;;;2.50;99.90;;;;;;5077235;28;20191;-72
2020/12/31 08:12:09;;;;;;;2.60;1.98;;;2.50;99.90;;;;;;5077453;28;20213;-72
2020/12/31 08:14:39;;;;;;;3.75;2.88;;;2.70;99.90;;;;;;5077902;28;20202;-72
2020/12/31 08:17:06;;;;;;;4.18;2.50;;;2.70;99.90;;;;;;5076714;28;20287;-72
2020/12/31 08:19:33;;;;;;;6.40;3.30;;;2.80;99.90;;;;;;5076992;28;20709;-72
2020/12/31 08:22:08;;;;;;;4.10;3.25;;;2.90;99.90;;;;;;5077022;28;20205;-72
2020/12/31 08:24:38;;;;;;;4.95;2.90;;;2.90;99.90;;;;;;5077046;28;20297;-72
2020/12/31 08:27:05;;;;;;;2.95;2.63;;;2.90;99.90;;;;;;5077143;28;20237;-72
2020/12/31 08:29:34;;;;;;;5.07;2.80;;;2.90;99.90;;;;;;5077951;28;20236;-72
2020/12/31 08:32:05;;;;;;;6.10;3.17;;;3.00;99.90;;;;;;5077906;28;20207;-72
2020/12/31 08:34:37;;;;;;;6.65;3.30;;;3.00;99.90;;;;;;5077197;28;20211;-73
2020/12/31 08:37:05;;;;;;;4.30;2.88;;;3.20;99.90;;;;;;5076675;28;20314;-72
2020/12/31 08:39:32;;;;;;;5.72;2.95;;;3.30;99.90;;;;;;5077269;28;20199;-72
2020/12/31 08:42:01;;;;;;;7.57;3.47;;;3.40;99.90;;;;;;5077196;28;20228;-72
2020/12/31 08:44:28;;;;;;;4.30;2.92;;;3.50;99.90;;;;;;5077049;28;20251;-72
2020/12/31 08:46:54;;;;;;;8.88;3.92;;;3.40;99.90;;;;;;5076764;28;20228;-73
2020/12/31 08:49:24;;;;;;;10.27;3.40;;;3.50;99.90;;;;;;5077595;28;20205;-73
2020/12/31 08:51:51;;;;;;;4.88;3.28;;;3.50;99.90;;;;;;5077317;28;20203;-72
2020/12/31 08:54:19;;;;;;;5.85;3.75;;;3.60;99.90;;;;;;5076499;28;20205;-72
2020/12/31 08:56:46;;;;;;;9.80;4.05;;;3.70;99.90;;;;;;5076077;28;20226;-72
2020/12/31 08:59:13;;;;;;;9.70;4.60;;;3.80;99.90;;;;;;5078074;28;20534;-72
2020/12/31 09:01:41;;;;;;;7.50;4.40;;;3.90;99.90;;;;;;5077851;28;20203;-73
2020/12/31 09:04:09;;;;;;;6.50;3.08;;;4.00;99.90;;;;;;5077009;28;20234;-72
2020/12/31 09:06:36;;;;;;;7.18;3.70;;;4.00;99.90;;;;;;5077726;28;20227;-73
2020/12/31 09:09:03;;;;;;;7.22;3.90;;;4.10;99.90;;;;;;5076220;28;20202;-73
2020/12/31 09:11:30;;;;;;;7.18;4.53;;;4.10;99.90;;;;;;5076265;28;20660;-74
2020/12/31 09:14:07;;;;;;;7.18;4.22;;;4.10;99.90;;;;;;5076322;28;20250;-73
2020/12/31 09:16:33;;;;;;;8.10;4.90;;;4.10;99.90;;;;;;5076150;28;20213;-73
2020/12/31 09:19:02;;;;;;;5.82;3.85;;;4.00;99.90;;;;;;5076369;28;20616;-73
2020/12/31 09:21:29;;;;;;;6.13;4.15;;;4.10;99.90;;;;;;5076630;28;20256;-73
2020/12/31 09:23:56;;;;;;;5.18;4.28;;;4.20;99.90;;;;;;5076792;28;20202;-74
2020/12/31 09:26:26;;;;;;;5.97;3.47;;;4.20;99.90;;;;;;5075827;28;20288;-73
2020/12/31 09:28:53;;;;;;;7.07;4.20;;;4.10;99.90;;;;;;5075266;28;20214;-73
2020/12/31 09:31:22;;;;;;;5.00;3.53;;;4.30;99.90;;;;;;5074423;28;20656;-73
2020/12/31 09:33:50;;;;;;;6.00;4.45;;;4.40;99.90;;;;;;5074325;28;20229;-73
2020/12/31 09:36:24;;;;;;;5.40;3.92;;;4.40;99.90;;;;;;5074273;28;20203;-72
2020/12/31 09:38:51;;;;;;;7.10;4.43;;;4.50;99.90;;;;;;5074981;28;20218;-73
2020/12/31 09:41:17;;;;;;;7.25;3.95;;;4.60;99.90;;;;;;5074967;28;20255;-73
2020/12/31 09:43:43;;;;;;;6.07;3.33;;;4.70;99.90;;;;;;5074724;28;20224;-73
2020/12/31 09:46:11;;;;;;;8.52;4.15;;;4.70;99.90;;;;;;5074070;28;20248;-73
2020/12/31 09:48:37;;;;;;;6.60;3.50;;;4.80;99.90;;;;;;5074961;28;20672;-73
2020/12/31 09:51:04;;;;;;;8.25;4.78;;;4.90;99.90;;;;;;5074827;28;20271;-73
2020/12/31 09:53:30;;;;;;;5.65;3.55;;;4.90;99.90;;;;;;5074611;28;20309;-73
2020/12/31 09:55:56;;;;;;;5.93;4.38;;;5.00;99.90;;;;;;5074401;28;20293;-73
2020/12/31 09:58:22;;;;;;;7.70;3.67;;;5.10;99.90;;;;;;5074264;28;20730;-73
2020/12/31 10:00:49;;;;;;;8.20;4.20;;;5.20;99.90;;;;;;5074217;28;20297;-73
2020/12/31 10:03:16;;;;;;;8.55;4.78;;;5.30;99.90;;;;;;5074425;28;20198;-73
2020/12/31 10:05:42;;;;;;;9.13;4.72;;;5.30;99.90;;;;;;5074318;28;20210;-73
2020/12/31 10:08:08;;;;;;;5.63;4.35;;;5.20;99.90;;;;;;5073985;28;20322;-73
2020/12/31 10:10:35;;;;;;;6.85;4.20;;;5.20;99.90;;;;;;5073972;28;20294;-73
2020/12/31 10:13:01;;;;;;;5.28;4.40;;;5.30;99.90;;;;;;5073931;28;20627;-73
2020/12/31 10:15:27;;;;;;;5.85;3.47;;;5.30;99.90;;;;;;5074352;28;20298;-73
2020/12/31 10:17:54;;;;;;;5.78;3.78;;;5.40;99.90;;;;;;5074255;28;20568;-73
2020/12/31 10:20:21;;;;;;;7.10;4.15;;;5.50;99.90;;;;;;5074295;28;20213;-73
2020/12/31 10:22:47;;;;;;;8.10;4.40;;;5.70;99.90;;;;;;5074019;28;20285;-73
2020/12/31 10:25:14;;;;;;;8.98;5.25;;;5.80;99.90;;;;;;5074128;28;20211;-73
2020/12/31 10:27:41;;;;;;;7.88;4.72;;;5.90;99.90;;;;;;5073883;28;20264;-73
2020/12/31 10:30:07;;;;;;;5.68;4.35;;;6.00;99.90;;;;;;5074149;28;20206;-73
2020/12/31 10:32:34;;;;;;;8.88;5.20;;;6.10;99.90;;;;;;5074101;28;20222;-73
2020/12/31 10:35:00;;;;;;;9.38;5.80;;;6.10;99.90;;;;;;5074245;28;20289;-73
2020/12/31 10:37:27;;;;;;;10.07;6.10;;;6.30;99.90;;;;;;5073367;28;20317;-73
2020/12/31 10:39:53;;;;;;;10.48;6.32;;;6.40;99.90;;;;;;5074581;28;20209;-73
2020/12/31 10:42:20;;;;;;;12.45;6.03;;;6.50;99.90;;;;;;5073759;28;20723;-73
2020/12/31 10:44:46;;;;;;;10.55;5.72;;;6.60;99.90;;;;;;5074074;28;20297;-73
2020/12/31 10:47:12;;;;;;;9.60;5.25;;;6.60;99.90;;;;;;5073752;28;20229;-72
2020/12/31 10:49:39;;;;;;;6.63;4.38;;;6.50;99.90;;;;;;5074053;28;20731;-73
2020/12/31 10:52:05;;;;;;;7.07;4.32;;;6.50;99.90;;;;;;5075209;28;20213;-73
2020/12/31 10:54:32;;;;;;;12.20;4.78;;;6.40;99.90;;;;;;5075456;28;20234;-73
2020/12/31 10:56:59;;;;;;;6.88;4.18;;;6.40;99.90;;;;;;5075265;28;20357;-73
2020/12/31 10:59:25;;;;;;;7.03;3.78;;;6.30;99.90;;;;;;5078961;28;20290;-74
2020/12/31 11:01:52;;;;;;;3.58;3.15;;;6.20;99.90;;;;;;5079122;28;20285;-73
2020/12/31 11:04:19;;;;;;;5.68;3.13;;;6.00;99.90;;;;;;5079260;28;20264;-74
2020/12/31 11:06:45;;;;;;;7.47;4.45;;;5.90;99.90;;;;;;5078443;28;20297;-73
2020/12/31 11:09:11;;;;;;;7.07;4.03;;;5.80;99.90;;;;;;5079205;28;20209;-74
2020/12/31 11:11:40;;;;;;;6.95;3.90;;;5.80;99.90;;;;;;5079089;28;20213;-74
2020/12/31 11:14:07;;;;;;;9.82;5.03;;;5.70;99.90;;;;;;5079950;28;20229;-73
2020/12/31 11:16:33;;;;;;;6.55;3.40;;;5.90;99.90;;;;;;5076928;28;20203;-73
2020/12/31 11:19:00;;;;;;;6.13;3.78;;;5.90;99.90;;;;;;5078128;28;20209;-71
2020/12/31 11:21:26;;;;;;;4.45;2.80;;;6.10;99.90;;;;;;5077743;28;20198;-73
2020/12/31 11:23:53;;;;;;;5.60;3.28;;;6.30;99.90;;;;;;5076818;28;20294;-73
2020/12/31 11:26:20;;;;;;;4.90;2.80;;;6.40;99.90;;;;;;5076697;28;20610;-73
2020/12/31 11:28:48;;;;;;;5.80;3.22;;;6.50;99.90;;;;;;5076852;28;20230;-73
2020/12/31 11:31:15;;;;;;;5.35;3.47;;;6.50;99.90;;;;;;5077125;28;20203;-73
2020/12/31 11:33:43;;;;;;;6.47;3.28;;;6.40;99.90;;;;;;5078362;28;20606;-73
2020/12/31 11:36:09;;;;;;;5.88;3.13;;;6.30;99.90;;;;;;5078456;28;20210;-72
2020/12/31 11:38:36;;;;;;;5.82;3.78;;;6.20;99.90;;;;;;5078067;28;20227;-73
2020/12/31 11:41:04;;;;;;;6.50;3.85;;;6.20;99.90;;;;;;5078189;28;20211;-73
2020/12/31 11:43:30;;;;;;;5.43;3.65;;;6.00;99.90;;;;;;5077986;28;20205;-73
2020/12/31 11:45:58;;;;;;;5.15;3.58;;;6.00;99.90;;;;;;5078160;28;20203;-72
2020/12/31 11:48:24;;;;;;;5.47;3.45;;;5.90;99.90;;;;;;5078627;28;20313;-73
2020/12/31 11:50:52;;;;;;;9.48;4.30;;;6.00;99.90;;;;;;5077842;28;20656;-73
2020/12/31 11:53:18;;;;;;;8.20;4.10;;;6.00;99.90;;;;;;5078126;28;20320;-73
2020/12/31 11:55:44;;;;;;;5.75;3.83;;;6.10;99.90;;;;;;5077714;28;20203;-73
2020/12/31 11:58:11;;;;;;;5.60;3.50;;;6.10;99.90;;;;;;5077503;28;20258;-73
2020/12/31 12:00:37;;;;;;;4.88;3.53;;;6.20;99.90;;;;;;5078105;28;20294;-73
2020/12/31 12:03:05;;;;;;;6.32;4.30;;;6.20;99.90;;;;;;5078512;28;20262;-73
2020/12/31 12:05:31;;;;;;;6.78;3.70;;;6.30;99.90;;;;;;5076765;28;20203;-73
2020/12/31 12:07:58;;;;;;;7.70;4.07;;;6.40;99.90;;;;;;5076211;28;20229;-73
2020/12/31 12:10:24;;;;;;;6.68;3.58;;;6.40;99.90;;;;;;5075428;28;20202;-73
2020/12/31 12:12:50;;;;;;;7.18;4.18;;;6.50;99.90;;;;;;5076018;28;20676;-73
2020/12/31 12:15:17;;;;;;;5.85;3.63;;;6.50;99.90;;;;;;5076533;28;20206;-73
2020/12/31 12:17:44;;;;;;;5.30;3.58;;;6.60;99.90;;;;;;5075453;28;20598;-73
2020/12/31 12:20:12;;;;;;;8.77;4.30;;;6.60;99.90;;;;;;5075994;28;20210;-73
2020/12/31 12:22:38;;;;;;;5.55;3.47;;;6.60;99.90;;;;;;5076039;28;20209;-73
2020/12/31 12:25:06;;;;;;;4.28;3.40;;;6.60;99.90;;;;;;5076382;28;20209;-73
2020/12/31 12:27:32;;;;;;;5.90;3.42;;;6.50;99.90;;;;;;5078450;28;20227;-75
2020/12/31 12:29:59;;;;;;;5.38;3.55;;;6.40;99.90;;;;;;5072883;28;20224;-75
2020/12/31 12:32:25;;;;;;;5.78;3.80;;;6.40;99.90;;;;;;5066024;28;20195;-74
2020/12/31 12:34:51;;;;;;;7.43;3.90;;;6.50;99.90;;;;;;5064485;28;20291;-74
2020/12/31 12:37:21;;;;;;;6.47;3.92;;;6.50;99.90;;;;;;5063191;28;20331;-75
2020/12/31 12:39:47;;;;;;;7.10;3.70;;;6.50;99.90;;;;;;5064174;28;20200;-77
2020/12/31 12:42:13;;;;;;;8.00;3.80;;;6.50;99.90;;;;;;5065415;28;20291;-76
2020/12/31 12:44:40;;;;;;;5.40;3.40;;;6.60;99.90;;;;;;5065367;28;20291;-75
2020/12/31 12:47:06;;;;;;;6.50;4.15;;;6.50;99.90;;;;;;5064940;28;20318;-75
2020/12/31 12:49:32;;;;;;;7.15;3.90;;;6.60;99.90;;;;;;5063855;28;20191;-77
2020/12/31 12:52:01;;;;;;;5.80;3.67;;;6.60;99.90;;;;;;5063218;28;20286;-76
2020/12/31 12:54:28;;;;;;;4.05;3.10;;;6.60;99.90;;;;;;5066763;28;20226;-77
2020/12/31 12:56:55;;;;;;;7.45;3.80;;;6.50;99.90;;;;;;5072180;28;20250;-78
2020/12/31 12:59:21;;;;;;;7.13;3.50;;;6.50;99.90;;;;;;5070133;28;20238;-77
2020/12/31 13:01:48;;;;;;;6.20;3.63;;;6.50;99.90;;;;;;5066807;28;20282;-78